Time;durP1;ratioP1;P1;durP2;ratioP2;P2;SDS_P1;SDS_P2;PMS_P1;PMS_P2;Temp;Humidity;BMP_temperature;BMP_pressure;BME280_temperature;BME280_humidity;BME280_pressure;Samples;Min_cycle;Max_cycle;Signal;HPM_P1;HPM_P2
2021/08/12 00:02:25;;;;;;;5.78;5.15;;;;;;;16.71;65.43;101210.91;4900648;28;101252;-64
2021/08/12 00:04:52;;;;;;;6.68;5.35;;;;;;;16.67;65.57;101211.50;4899954;28;126210;-68
2021/08/12 00:07:20;;;;;;;6.10;5.28;;;;;;;16.65;65.40;101204.72;4898897;28;99167;-64
2021/08/12 00:09:46;;;;;;;6.20;5.30;;;;;;;16.62;65.96;101219.72;4898957;28;98259;-69
2021/08/12 00:12:13;;;;;;;5.93;5.32;;;;;;;16.59;65.40;101212.13;4900109;28;128080;-68
2021/08/12 00:14:39;;;;;;;6.28;5.47;;;;;;;16.52;65.34;101219.81;4900743;28;97800;-68
2021/08/12 00:17:05;;;;;;;5.78;5.20;;;;;;;16.45;65.89;101217.44;4898442;28;121552;-69
2021/08/12 00:19:31;;;;;;;5.30;4.80;;;;;;;16.39;65.87;101215.88;4900436;28;127800;-64
2021/08/12 00:21:57;;;;;;;5.28;4.72;;;;;;;16.38;65.75;101218.88;4901290;28;98434;-69
2021/08/12 00:24:23;;;;;;;6.18;5.03;;;;;;;16.35;65.69;101219.47;4899774;28;127580;-69
2021/08/12 00:26:49;;;;;;;6.57;5.47;;;;;;;16.31;65.71;101219.25;4900665;28;97779;-64
2021/08/12 00:29:19;;;;;;;6.82;5.35;;;;;;;16.29;65.92;101220.63;4900329;28;100528;-64
2021/08/12 00:31:45;;;;;;;6.25;5.15;;;;;;;16.26;65.86;101232.06;4898803;28;98323;-64
2021/08/12 00:34:11;;;;;;;5.30;4.80;;;;;;;16.26;65.86;101232.06;4900325;28;98920;-69
2021/08/12 00:36:37;;;;;;;5.35;4.85;;;;;;;16.24;66.21;101234.28;4901308;28;98042;-64
2021/08/12 00:39:03;;;;;;;5.93;4.75;;;;;;;16.21;65.67;101235.66;4900148;28;128024;-64
2021/08/12 00:41:35;;;;;;;5.40;4.90;;;;;;;16.17;65.45;101229.97;4898686;28;125461;-69
2021/08/12 00:44:01;;;;;;;5.28;4.63;;;;;;;16.14;65.75;101230.53;4914191;28;98088;-64
2021/08/12 00:46:27;;;;;;;6.82;5.22;;;;;;;16.13;66.49;101233.56;4914389;28;98157;-68
2021/08/12 00:48:53;;;;;;;6.50;4.85;;;;;;;16.12;65.68;101235.47;4880934;28;121574;-69
2021/08/12 00:51:19;;;;;;;5.70;5.00;;;;;;;16.08;65.69;101231.69;4893691;28;128120;-69
2021/08/12 00:53:45;;;;;;;6.07;4.75;;;;;;;16.06;65.87;101233.88;4910553;28;128028;-69
2021/08/12 00:56:11;;;;;;;6.75;5.15;;;;;;;16.06;65.97;101233.06;4878020;28;124030;-64
2021/08/12 00:58:37;;;;;;;5.82;5.22;;;;;;;16.02;65.62;101230.09;4906203;28;128530;-63
2021/08/12 01:01:03;;;;;;;6.05;5.20;;;;;;;15.96;66.27;101231.25;4929924;28;128120;-68
2021/08/12 01:03:30;;;;;;;5.60;5.10;;;;;;;15.90;66.07;101240.53;4914077;28;102954;-64
2021/08/12 01:05:56;;;;;;;5.53;5.03;;;;;;;15.86;65.56;101234.03;4897813;28;98253;-64
2021/08/12 01:08:57;;;;;;;7.40;5.55;;;;;;;15.81;65.92;101234.91;4899297;28;98527;-69
2021/08/12 01:11:38;;;;;;;9.18;5.45;;;;;;;15.81;65.88;101234.91;4910307;28;99493;-69
2021/08/12 01:14:47;;;;;;;7.63;5.55;;;;;;;15.78;65.64;101232.75;4928080;28;98118;-63
2021/08/12 01:17:21;;;;;;;7.60;5.13;;;;;;;15.76;65.80;101228.69;4928453;28;97963;-68
2021/08/12 01:20:27;;;;;;;6.55;5.35;;;;;;;15.75;65.93;101235.22;4929976;28;98333;-64
2021/08/12 01:22:54;;;;;;;7.10;5.50;;;;;;;15.72;66.32;101228.47;4899823;28;98120;-68
2021/08/12 01:25:27;;;;;;;6.65;5.32;;;;;;;15.71;66.63;101230.34;4889892;28;97903;-64
2021/08/12 01:27:55;;;;;;;6.53;4.80;;;;;;;15.71;66.40;101232.25;4911319;28;102254;-63
2021/08/12 01:30:27;;;;;;;7.93;5.38;;;;;;;15.66;65.77;101224.13;4894632;28;98583;-63
2021/08/12 01:33:17;;;;;;;7.00;5.23;;;;;;;15.63;65.77;101230.91;4898411;28;98600;-68
2021/08/12 01:35:43;;;;;;;8.98;5.65;;;;;;;15.63;66.05;101228.19;4880818;28;98273;-69
2021/08/12 01:38:24;;;;;;;7.03;5.20;;;;;;;15.61;66.10;101226.88;4911103;28;97711;-67
2021/08/12 01:40:51;;;;;;;6.82;5.57;;;;;;;15.62;66.30;101232.00;4893484;28;98454;-63
2021/08/12 01:43:18;;;;;;;7.60;5.25;;;;;;;15.60;66.04;101228.78;4885396;28;103764;-68
2021/08/12 01:45:50;;;;;;;7.65;5.65;;;;;;;15.55;65.51;101228.00;4897806;28;98086;-64
2021/08/12 01:48:17;;;;;;;6.47;5.32;;;;;;;15.54;65.54;101229.09;4930081;28;98135;-63
2021/08/12 01:50:43;;;;;;;7.00;5.68;;;;;;;15.50;65.74;101230.75;4897836;28;98991;-68
2021/08/12 01:53:10;;;;;;;6.15;5.55;;;;;;;15.49;65.97;101232.66;4901334;28;99274;-68
2021/08/12 01:55:36;;;;;;;6.20;5.60;;;;;;;15.47;66.10;101226.69;4917692;28;100286;-68
2021/08/12 01:58:02;;;;;;;6.00;5.38;;;;;;;15.47;66.21;101235.63;4882164;28;121944;-63
2021/08/12 02:00:30;;;;;;;7.68;5.90;;;;;;;15.46;65.95;101233.22;4899655;28;99164;-63
2021/08/12 02:02:56;;;;;;;7.13;6.43;;;;;;;15.45;66.00;101231.59;4897280;28;102144;-68
2021/08/12 02:05:22;;;;;;;7.40;6.40;;;;;;;15.40;65.93;101235.13;4897859;28;98069;-68
2021/08/12 02:07:48;;;;;;;7.40;6.40;;;;;;;15.37;66.02;101226.75;4905838;28;97950;-68
2021/08/12 02:10:15;;;;;;;6.78;6.03;;;;;;;15.36;65.94;101233.25;4915686;28;115239;-63
2021/08/12 02:12:42;;;;;;;7.78;6.68;;;;;;;15.35;65.91;101229.75;4901081;28;107114;-63
2021/08/12 02:15:08;;;;;;;6.75;6.05;;;;;;;15.35;65.75;101232.47;4904245;28;98244;-63
2021/08/12 02:17:35;;;;;;;6.93;6.22;;;;;;;15.34;66.05;101225.41;4895315;28;97843;-63
2021/08/12 02:20:06;;;;;;;6.75;5.97;;;;;;;15.31;66.25;101230.59;4883424;28;106728;-67
2021/08/12 02:22:38;;;;;;;6.60;6.00;;;;;;;15.23;65.87;101223.84;4899071;28;98429;-68
2021/08/12 02:25:11;;;;;;;6.78;6.07;;;;;;;15.19;65.81;101226.31;4932445;28;97950;-68
2021/08/12 02:27:45;;;;;;;7.10;6.40;;;;;;;15.21;66.22;101231.47;4901675;28;98366;-63
2021/08/12 02:30:11;;;;;;;7.65;6.95;;;;;;;15.25;66.32;101229.81;4932289;28;98615;-67
2021/08/12 02:32:38;;;;;;;6.18;5.68;;;;;;;15.27;66.22;101227.63;4932440;28;98989;-63
2021/08/12 02:35:05;;;;;;;7.60;6.45;;;;;;;15.33;66.16;101215.66;4900631;28;98065;-63
2021/08/12 02:37:32;;;;;;;7.22;6.30;;;;;;;15.38;66.23;101228.38;4931453;28;113214;-67
2021/08/12 02:39:58;;;;;;;6.75;6.07;;;;;;;15.41;65.84;101228.63;4901727;28;117859;-63
2021/08/12 02:42:24;;;;;;;7.45;6.00;;;;;;;15.43;65.98;101220.19;4931560;28;127669;-63
2021/08/12 02:44:50;;;;;;;6.85;6.15;;;;;;;15.45;65.79;101220.72;4931698;28;127352;-67
2021/08/12 02:47:16;;;;;;;7.70;6.07;;;;;;;15.46;65.43;101219.63;4916506;28;101215;-63
2021/08/12 02:49:45;;;;;;;8.50;5.78;;;;;;;15.44;65.19;101225.34;4898967;28;127822;-63
2021/08/12 02:52:11;;;;;;;7.50;6.07;;;;;;;15.42;65.58;101227.53;4908675;28;98855;-63
2021/08/12 02:54:37;;;;;;;7.05;6.35;;;;;;;15.43;65.67;101225.63;4897073;28;116292;-67
2021/08/12 02:57:04;;;;;;;6.95;6.32;;;;;;;15.44;66.04;101225.34;4913510;28;97895;-63
2021/08/12 02:59:30;;;;;;;6.80;6.18;;;;;;;15.44;65.88;101227.25;4881032;28;105774;-67
2021/08/12 03:01:56;;;;;;;6.35;5.75;;;;;;;15.42;65.66;101224.81;4896908;28;128293;-67
2021/08/12 03:04:22;;;;;;;7.03;6.20;;;;;;;15.39;65.20;101225.38;4913640;28;127159;-67
2021/08/12 03:06:57;;;;;;;7.25;6.25;;;;;;;15.34;65.46;101225.41;4883389;28;98003;-63
2021/08/12 03:09:23;;;;;;;7.38;6.68;;;;;;;15.34;66.05;101230.84;4900722;28;112729;-67
2021/08/12 03:11:50;;;;;;;7.70;6.07;;;;;;;15.32;65.79;101227.56;4883883;28;106586;-67
2021/08/12 03:14:16;;;;;;;7.95;6.63;;;;;;;15.29;65.64;101241.75;4884621;28;98353;-67
2021/08/12 03:16:42;;;;;;;8.02;7.00;;;;;;;15.25;65.21;101239.84;4892780;28;119679;-67
2021/08/12 03:19:08;;;;;;;7.85;7.03;;;;;;;15.22;65.66;101242.03;4917555;28;127218;-63
2021/08/12 03:21:34;;;;;;;7.30;6.60;;;;;;;15.21;65.50;101245.84;4896070;28;127472;-67
2021/08/12 03:24:02;;;;;;;7.43;6.70;;;;;;;15.20;65.46;101244.22;4930031;28;97946;-63
2021/08/12 03:26:32;;;;;;;7.70;7.00;;;;;;;15.14;65.38;101239.91;4899801;28;97940;-63
2021/08/12 03:28:58;;;;;;;8.75;7.68;;;;;;;15.14;65.50;101244.53;4901474;28;98223;-67
2021/08/12 03:31:24;;;;;;;8.13;7.32;;;;;;;15.12;65.27;101249.41;4901632;28;106826;-67
2021/08/12 03:33:50;;;;;;;9.82;7.78;;;;;;;15.08;65.28;101245.63;4901481;28;98540;-67
2021/08/12 03:36:16;;;;;;;7.70;6.90;;;;;;;15.05;65.54;101257.88;4900951;28;121776;-63
2021/08/12 03:38:42;;;;;;;9.18;7.25;;;;;;;15.01;65.19;101259.50;4900234;28;127232;-63
2021/08/12 03:41:08;;;;;;;8.20;6.55;;;;;;;14.99;65.82;101253.56;4901334;28;128003;-63
2021/08/12 03:43:34;;;;;;;6.88;6.18;;;;;;;14.99;65.64;101258.97;4900548;28;97838;-68
2021/08/12 03:46:00;;;;;;;8.02;6.72;;;;;;;14.94;65.68;101251.66;4914556;28;122448;-63
2021/08/12 03:48:26;;;;;;;6.43;5.85;;;;;;;14.87;65.61;101251.16;4899902;28;128105;-63
2021/08/12 03:50:52;;;;;;;7.00;6.40;;;;;;;14.86;65.63;101249.53;4866608;28;127312;-67
2021/08/12 03:53:19;;;;;;;7.55;6.18;;;;;;;14.86;66.13;101254.16;4866472;28;126172;-67
2021/08/12 03:55:45;;;;;;;8.32;6.47;;;;;;;14.85;65.91;101250.59;4901659;28;98388;-68
2021/08/12 03:58:11;;;;;;;8.27;6.82;;;;;;;14.83;66.41;101252.78;4900448;28;98671;-67
2021/08/12 04:00:37;;;;;;;7.80;7.00;;;;;;;14.83;66.06;101252.00;4900228;28;127965;-63
2021/08/12 04:03:04;;;;;;;8.90;7.20;;;;;;;14.82;66.05;101259.31;4897511;28;127414;-67
2021/08/12 04:05:30;;;;;;;7.47;6.78;;;;;;;14.82;66.12;101269.38;4901575;28;97859;-63
2021/08/12 04:07:56;;;;;;;7.72;6.88;;;;;;;14.80;65.93;101260.69;4900120;28;128210;-63
2021/08/12 04:10:22;;;;;;;7.75;7.05;;;;;;;14.78;66.13;101252.81;4899679;28;128712;-63
2021/08/12 04:12:48;;;;;;;8.30;7.50;;;;;;;14.77;65.52;101253.09;4900893;28;97809;-68
2021/08/12 04:15:14;;;;;;;7.13;6.43;;;;;;;14.75;65.64;101253.38;4900879;28;101520;-68
2021/08/12 04:17:40;;;;;;;9.93;6.70;;;;;;;14.77;65.49;101261.22;4900957;28;128122;-67
2021/08/12 04:20:06;;;;;;;7.65;6.85;;;;;;;14.76;65.87;101260.41;4900174;28;119927;-63
2021/08/12 04:22:33;;;;;;;8.15;6.75;;;;;;;14.76;65.27;101262.31;4899694;28;113631;-67
2021/08/12 04:24:59;;;;;;;8.10;6.95;;;;;;;14.75;65.39;101272.38;4901513;28;97749;-68
2021/08/12 04:27:25;;;;;;;8.65;7.47;;;;;;;14.76;65.27;101271.25;4900488;28;98306;-67
2021/08/12 04:29:51;;;;;;;8.82;8.00;;;;;;;14.76;65.56;101265.84;4900192;28;126910;-67
2021/08/12 04:32:17;;;;;;;8.68;7.82;;;;;;;14.77;65.35;101266.66;4900367;28;127380;-67
2021/08/12 04:34:43;;;;;;;8.25;7.45;;;;;;;14.79;65.52;101267.19;4900510;28;123087;-63
2021/08/12 04:37:09;;;;;;;9.13;8.10;;;;;;;14.81;65.50;101268.53;4898467;28;98511;-63
2021/08/12 04:39:35;;;;;;;9.07;8.15;;;;;;;14.81;65.34;101267.72;4900218;28;103274;-68
2021/08/12 04:42:01;;;;;;;9.75;8.75;;;;;;;14.83;65.62;101263.66;4899361;28;126519;-68
2021/08/12 04:44:27;;;;;;;9.48;8.38;;;;;;;14.83;65.59;101260.94;4898524;28;108621;-68
2021/08/12 04:46:53;;;;;;;10.32;7.55;;;;;;;14.88;65.83;101262.81;4895728;28;98694;-68
2021/08/12 04:49:19;;;;;;;8.93;8.02;;;;;;;14.92;65.77;101261.97;4895950;28;126837;-63
2021/08/12 04:51:45;;;;;;;9.52;8.52;;;;;;;14.97;66.02;101259.28;4896729;28;108201;-68
2021/08/12 04:54:11;;;;;;;9.02;7.85;;;;;;;15.02;65.67;101268.47;4890750;28;120814;-68
2021/08/12 04:56:38;;;;;;;8.18;7.43;;;;;;;15.08;65.56;101270.06;4897823;28;98346;-68
2021/08/12 04:59:04;;;;;;;8.55;7.28;;;;;;;15.14;65.73;101266.25;4897090;28;98145;-68
2021/08/12 05:01:30;;;;;;;8.55;7.60;;;;;;;15.20;66.13;101268.66;4897106;28;98388;-68
2021/08/12 05:03:56;;;;;;;9.50;7.40;;;;;;;15.30;65.86;101269.72;4909986;28;123415;-63
2021/08/12 05:06:22;;;;;;;10.50;7.57;;;;;;;15.38;66.15;101269.94;4893866;28;128350;-63
2021/08/12 05:08:48;;;;;;;9.50;7.88;;;;;;;15.46;65.88;101279.41;4895676;28;127309;-68
2021/08/12 05:11:14;;;;;;;10.43;8.52;;;;;;;15.56;66.05;101273.91;4893891;28;126658;-63
2021/08/12 05:13:40;;;;;;;8.95;8.05;;;;;;;15.65;65.66;101269.53;4894961;28;98160;-63
2021/08/12 05:16:06;;;;;;;9.25;8.10;;;;;;;15.76;65.56;101270.28;4896612;28;98227;-68
2021/08/12 05:18:32;;;;;;;8.75;7.75;;;;;;;15.82;65.43;101271.84;4879657;28;98380;-63
2021/08/12 05:20:58;;;;;;;10.75;7.57;;;;;;;15.92;65.34;101277.22;4898852;28;127512;-63
2021/08/12 05:23:24;;;;;;;9.30;7.68;;;;;;;16.05;65.12;101274.97;4900481;28;97979;-63
2021/08/12 05:25:50;;;;;;;9.10;8.20;;;;;;;16.14;65.06;101274.03;4882322;28;98198;-68
2021/08/12 05:28:16;;;;;;;9.43;8.52;;;;;;;16.25;64.95;101274.78;4915796;28;99249;-63
2021/08/12 05:30:42;;;;;;;9.35;8.35;;;;;;;16.39;64.64;101269.50;4902420;28;127656;-68
2021/08/12 05:33:09;;;;;;;10.43;8.98;;;;;;;16.53;64.79;101280.50;4901683;28;122878;-68
2021/08/12 05:35:35;;;;;;;9.05;8.18;;;;;;;16.66;64.49;101275.22;4903037;28;101002;-68
2021/08/12 05:38:01;;;;;;;8.40;7.47;;;;;;;16.82;64.57;101278.59;4900041;28;127956;-68
2021/08/12 05:40:27;;;;;;;8.98;8.07;;;;;;;17.01;63.91;101275.09;4903496;28;98161;-63
2021/08/12 05:42:53;;;;;;;9.00;7.70;;;;;;;17.17;63.02;101268.34;4901164;28;122908;-68
2021/08/12 05:45:19;;;;;;;8.18;7.40;;;;;;;17.35;63.06;101273.03;4886191;28;104202;-68
2021/08/12 05:47:45;;;;;;;7.97;7.22;;;;;;;17.54;62.78;101277.69;4903545;28;98343;-63
2021/08/12 05:50:11;;;;;;;9.30;8.25;;;;;;;17.70;62.39;101279.09;4900365;28;119299;-63
2021/08/12 05:52:37;;;;;;;8.02;7.22;;;;;;;17.87;62.09;101271.19;4901311;28;98139;-68
2021/08/12 05:55:05;;;;;;;8.18;7.38;;;;;;;18.07;61.93;101267.34;4885091;28;113856;-67
2021/08/12 05:57:31;;;;;;;7.68;7.03;;;;;;;18.27;61.57;101273.56;4900703;28;98512;-68
2021/08/12 05:59:57;;;;;;;8.05;6.72;;;;;;;18.44;60.83;101279.28;4901729;28;126107;-68
2021/08/12 06:02:23;;;;;;;7.57;6.97;;;;;;;18.60;60.85;101279.78;4902493;28;123452;-68
2021/08/12 06:04:49;;;;;;;7.70;6.90;;;;;;;18.79;60.12;101285.22;4901813;28;128094;-63
2021/08/12 06:07:15;;;;;;;7.25;6.65;;;;;;;18.97;59.93;101272.56;4901476;28;128559;-68
2021/08/12 06:09:41;;;;;;;8.25;7.20;;;;;;;19.15;59.74;101279.84;4902490;28;98511;-68
2021/08/12 06:12:08;;;;;;;7.57;6.78;;;;;;;19.35;59.06;101273.13;4902885;28;97951;-68
2021/08/12 06:14:34;;;;;;;7.03;6.43;;;;;;;19.55;58.99;101269.13;4901731;28;100731;-63
2021/08/12 06:17:00;;;;;;;7.47;6.22;;;;;;;19.77;58.74;101282.88;4901727;28;127847;-63
2021/08/12 06:19:26;;;;;;;7.40;6.70;;;;;;;20.00;58.12;101285.59;4902422;28;97872;-63
2021/08/12 06:21:52;;;;;;;7.10;6.40;;;;;;;20.25;57.64;101275.94;4901952;28;122946;-64
2021/08/12 06:24:18;;;;;;;6.63;6.05;;;;;;;20.50;56.91;101288.19;4902829;28;98058;-64
2021/08/12 06:26:44;;;;;;;6.90;6.20;;;;;;;20.77;56.15;101289.94;4884427;28;115824;-68
2021/08/12 06:29:11;;;;;;;6.93;5.75;;;;;;;21.12;55.79;101290.03;4902482;28;97877;-64
2021/08/12 06:31:38;;;;;;;6.28;5.47;;;;;;;21.68;54.28;101296.59;4901507;28;99495;-68
2021/08/12 06:34:04;;;;;;;5.75;5.25;;;;;;;22.35;52.93;101290.59;4885291;28;112582;-68
2021/08/12 06:36:32;;;;;;;5.35;4.85;;;;;;;23.00;51.63;101294.09;4883447;28;98477;-68
2021/08/12 06:39:01;;;;;;;5.70;4.47;;;;;;;23.60;50.39;101297.59;4900825;28;98088;-68
2021/08/12 06:41:28;;;;;;;5.07;4.35;;;;;;;24.29;49.84;101302.50;4902216;28;97891;-68
2021/08/12 06:43:54;;;;;;;4.82;4.43;;;;;;;24.97;48.01;101300.09;4901593;28;97788;-64
2021/08/12 06:46:20;;;;;;;5.72;4.00;;;;;;;25.76;46.03;101302.50;4902737;28;98546;-63
2021/08/12 06:48:46;;;;;;;4.20;3.80;;;;;;;26.43;44.76;101309.13;4900622;28;124168;-63
2021/08/12 06:51:12;;;;;;;4.68;3.83;;;;;;;27.07;43.76;101300.81;4901662;28;122520;-64
2021/08/12 06:53:38;;;;;;;5.15;4.03;;;;;;;27.69;42.69;101293.53;4908182;28;127856;-68
2021/08/12 06:56:04;;;;;;;4.53;4.07;;;;;;;28.28;41.31;101292.34;4881900;28;121262;-68
2021/08/12 06:58:31;;;;;;;3.72;3.40;;;;;;;28.85;40.23;101292.56;4875342;28;118674;-64
2021/08/12 07:00:57;;;;;;;4.22;3.83;;;;;;;29.42;38.79;101295.38;4884164;28;98242;-64
2021/08/12 07:03:23;;;;;;;4.05;3.63;;;;;;;30.19;37.18;101292.00;4901232;28;127918;-68
2021/08/12 07:05:49;;;;;;;4.78;3.53;;;;;;;30.11;37.60;101300.59;4902079;28;97934;-64
2021/08/12 07:08:15;;;;;;;3.83;3.45;;;;;;;30.19;36.93;101303.09;4900348;28;128223;-64
2021/08/12 07:10:41;;;;;;;3.90;3.50;;;;;;;29.96;37.54;101297.66;4901177;28;122595;-64
2021/08/12 07:13:07;;;;;;;5.32;3.47;;;;;;;29.79;37.44;101312.97;4899602;28;99673;-63
2021/08/12 07:15:33;;;;;;;4.57;3.40;;;;;;;29.62;37.38;101301.63;4900969;28;128162;-64
2021/08/12 07:18:00;;;;;;;3.63;3.13;;;;;;;29.52;37.15;101305.84;4898946;28;126942;-68
2021/08/12 07:20:26;;;;;;;3.97;3.35;;;;;;;29.59;37.62;101301.19;4899947;28;97936;-64
2021/08/12 07:22:53;;;;;;;3.83;3.20;;;;;;;29.74;37.09;101296.59;4901029;28;98941;-64
2021/08/12 07:25:21;;;;;;;3.72;3.17;;;;;;;29.57;37.95;101298.00;4901455;28;98193;-64
2021/08/12 07:27:49;;;;;;;3.78;3.47;;;;;;;29.17;38.24;101292.25;4901252;28;97796;-68
2021/08/12 07:30:15;;;;;;;4.07;3.50;;;;;;;28.94;38.91;101290.31;4901231;28;98167;-68
2021/08/12 07:32:41;;;;;;;4.25;3.30;;;;;;;28.81;39.30;101289.72;4900338;28;98301;-64
2021/08/12 07:35:08;;;;;;;3.58;3.28;;;;;;;28.99;38.02;101290.00;4901755;28;114183;-64
2021/08/12 07:37:34;;;;;;;3.55;3.20;;;;;;;29.16;38.44;101294.25;4900975;28;97900;-68
2021/08/12 07:40:00;;;;;;;4.38;3.30;;;;;;;29.28;37.42;101296.00;4900036;28;109106;-68
2021/08/12 07:42:26;;;;;;;3.97;3.17;;;;;;;29.58;37.31;101302.34;4905421;28;127334;-68
2021/08/12 07:44:53;;;;;;;5.97;3.75;;;;;;;29.91;37.16;101291.63;4897836;28;126805;-64
2021/08/12 07:47:19;;;;;;;4.10;3.47;;;;;;;30.26;35.95;101303.19;4899606;28;126827;-64
2021/08/12 07:49:45;;;;;;;3.50;3.20;;;;;;;30.55;35.22;101304.25;4899371;28;123829;-69
2021/08/12 07:52:11;;;;;;;3.25;2.88;;;;;;;30.65;35.01;101308.28;4900682;28;98161;-64
2021/08/12 07:54:37;;;;;;;3.58;2.80;;;;;;;30.96;35.16;101298.63;4900499;28;111066;-69
2021/08/12 07:57:05;;;;;;;4.10;3.25;;;;;;;31.07;34.89;101301.47;4900870;28;97983;-64
2021/08/12 07:59:31;;;;;;;4.28;3.00;;;;;;;31.28;34.87;101298.84;4901272;28;97922;-65
2021/08/12 08:01:57;;;;;;;3.42;3.13;;;;;;;31.66;34.14;101299.44;4900024;28;106093;-63
2021/08/12 08:04:23;;;;;;;3.35;3.05;;;;;;;32.10;33.35;101292.81;4901271;28;98576;-65
2021/08/12 08:06:49;;;;;;;3.25;2.58;;;;;;;32.55;32.59;101295.31;4899882;28;98990;-64
2021/08/12 08:09:15;;;;;;;4.40;2.70;;;;;;;33.01;31.11;101305.66;4900402;28;123732;-63
2021/08/12 08:11:41;;;;;;;3.28;2.60;;;;;;;33.36;31.08;101299.97;4899725;28;117631;-69
2021/08/12 08:14:08;;;;;;;2.95;2.40;;;;;;;33.90;30.55;101294.19;4898622;28;110810;-64
2021/08/12 08:16:34;;;;;;;3.30;2.70;;;;;;;34.10;29.76;101294.50;4894543;28;98072;-69
2021/08/12 08:19:00;;;;;;;4.97;2.75;;;;;;;34.24;29.91;101302.03;4900941;28;98247;-64
2021/08/12 08:21:30;;;;;;;4.55;2.90;;;;;;;34.78;29.13;101297.63;4868675;28;127286;-63
2021/08/12 08:23:57;;;;;;;2.80;2.60;;;;;;;35.60;28.06;101293.94;4880178;28;99176;-65
2021/08/12 08:26:23;;;;;;;3.00;2.70;;;;;;;36.32;28.00;101285.34;4899398;28;127288;-63
2021/08/12 08:28:50;;;;;;;2.58;2.38;;;;;;;36.71;25.93;101275.50;4900039;28;122956;-63
2021/08/12 08:31:16;;;;;;;2.45;2.10;;;;;;;37.24;26.24;101270.88;4899850;28;118134;-69
2021/08/12 08:33:42;;;;;;;2.53;2.10;;;;;;;38.04;25.03;101282.88;4882008;28;98496;-69
2021/08/12 08:36:08;;;;;;;3.65;2.53;;;;;;;38.25;24.99;101273.09;4882259;28;113198;-69
2021/08/12 08:38:34;;;;;;;2.63;2.17;;;;;;;37.33;25.56;101278.72;4899228;28;122741;-70
2021/08/12 08:41:01;;;;;;;3.00;2.15;;;;;;;37.47;24.73;101270.03;4900330;28;98962;-69
2021/08/12 08:43:28;;;;;;;2.55;2.10;;;;;;;36.47;25.75;101269.09;4882119;28;97949;-70
2021/08/12 08:45:54;;;;;;;3.35;2.30;;;;;;;36.55;25.97;101269.75;4882796;28;114148;-64
2021/08/12 08:48:20;;;;;;;3.35;2.05;;;;;;;36.82;26.11;101275.28;4880761;28;122179;-64
2021/08/12 08:50:46;;;;;;;2.63;2.30;;;;;;;37.70;24.93;101279.59;4865261;28;127708;-69
2021/08/12 08:53:17;;;;;;;2.50;2.30;;;;;;;38.78;23.72;101279.44;4898927;28;98550;-70
2021/08/12 08:55:44;;;;;;;2.42;2.13;;;;;;;40.06;22.66;101273.34;4899926;28;97783;-64
2021/08/12 08:58:10;;;;;;;2.80;2.00;;;;;;;40.56;22.02;101272.50;4900666;28;98062;-70
2021/08/12 09:00:37;;;;;;;2.67;2.13;;;;;;;41.31;21.28;101267.00;4882797;28;99095;-64
2021/08/12 09:03:03;;;;;;;3.38;2.00;;;;;;;41.73;20.64;101262.97;4883990;28;98684;-70
2021/08/12 09:05:29;;;;;;;4.25;2.05;;;;;;;41.92;20.55;101262.63;4903084;28;98955;-70
2021/08/12 09:07:55;;;;;;;2.45;2.10;;;;;;;42.78;19.43;101256.19;4901018;28;123319;-64
2021/08/12 09:10:21;;;;;;;3.45;2.28;;;;;;;42.62;19.33;101251.59;4903578;28;99124;-65
2021/08/12 09:12:48;;;;;;;3.20;2.20;;;;;;;42.88;19.23;101248.50;4902972;28;108523;-70
2021/08/12 09:15:20;;;;;;;2.15;2.05;;;;;;;43.19;18.65;101241.84;4885386;28;108642;-70
2021/08/12 09:17:47;;;;;;;2.28;1.88;;;;;;;41.98;19.69;101242.22;4903663;28;98059;-64
2021/08/12 09:20:16;;;;;;;3.88;2.20;;;;;;;42.30;20.04;101238.06;4902976;28;98897;-69
2021/08/12 09:23:04;;;;;;;3.90;2.03;;;;;;;42.29;20.15;101231.63;4903010;28;99384;-64
2021/08/12 09:25:41;;;;;;;2.33;2.13;;;;;;;41.66;20.54;101230.09;4903375;28;97893;-64
2021/08/12 09:28:31;;;;;;;3.13;2.05;;;;;;;41.21;20.60;101229.38;4902908;28;98109;-64
2021/08/12 09:31:02;;;;;;;2.47;1.80;;;;;;;40.69;20.21;101224.47;4902874;28;98670;-69
2021/08/12 09:33:32;;;;;;;2.10;1.90;;;;;;;40.02;21.31;101225.47;4902573;28;98708;-64
2021/08/12 09:35:59;;;;;;;2.10;1.90;;;;;;;39.44;21.29;101228.50;4904027;28;98270;-64
2021/08/12 09:38:25;;;;;;;2.88;1.75;;;;;;;38.86;21.56;101220.09;4885054;28;97944;-64
2021/08/12 09:40:56;;;;;;;4.40;2.10;;;;;;;39.30;21.27;101221.25;4895932;28;99040;-65
2021/08/12 09:43:24;;;;;;;4.15;2.22;;;;;;;39.49;21.43;101214.63;4902418;28;98507;-64
2021/08/12 09:45:50;;;;;;;2.05;1.85;;;;;;;40.27;20.21;101216.19;4902943;28;98377;-69
2021/08/12 09:48:18;;;;;;;2.30;2.10;;;;;;;40.86;19.78;101225.03;4892046;28;121523;-69
2021/08/12 09:51:02;;;;;;;2.45;2.15;;;;;;;40.48;20.21;101212.66;4884071;28;98932;-64
2021/08/12 09:53:29;;;;;;;3.28;2.00;;;;;;;40.46;20.46;101212.31;4882504;28;98917;-69
2021/08/12 09:55:56;;;;;;;2.63;2.40;;;;;;;40.04;19.99;101222.19;4882878;28;105992;-64
2021/08/12 09:58:22;;;;;;;2.47;2.28;;;;;;;39.40;20.13;101210.91;4926917;28;98108;-70
2021/08/12 10:00:49;;;;;;;2.80;2.15;;;;;;;39.37;20.90;101221.03;4901455;28;98812;-64
2021/08/12 10:03:31;;;;;;;3.53;2.08;;;;;;;37.53;22.78;101211.28;4886092;28;98862;-64
2021/08/12 10:06:00;;;;;;;2.75;2.30;;;;;;;36.11;23.75;101204.31;4883369;28;98674;-69
2021/08/12 10:08:38;;;;;;;3.38;2.30;;;;;;;35.13;25.58;101209.66;4885739;28;98117;-64
2021/08/12 10:11:20;;;;;;;3.03;2.10;;;;;;;34.51;25.86;101216.31;4883094;28;98512;-64
2021/08/12 10:13:47;;;;;;;2.50;2.28;;;;;;;33.90;26.55;101213.13;4882792;28;99165;-69
2021/08/12 10:16:15;;;;;;;2.50;2.30;;;;;;;33.43;27.71;101205.00;4913297;28;98369;-64
2021/08/12 10:18:43;;;;;;;3.42;2.38;;;;;;;33.06;28.21;101202.75;4883851;28;98430;-64
2021/08/12 10:21:14;;;;;;;3.25;2.58;;;;;;;33.03;27.70;101211.94;4900287;28;98354;-69
2021/08/12 10:23:40;;;;;;;3.03;2.60;;;;;;;33.21;27.72;101204.31;4902569;28;98909;-64
2021/08/12 10:26:07;;;;;;;2.85;2.55;;;;;;;33.79;26.88;101207.59;4901892;28;98018;-64
2021/08/12 10:28:34;;;;;;;3.28;2.58;;;;;;;34.17;26.00;101214.16;4901398;28;122622;-69
2021/08/12 10:31:02;;;;;;;3.28;2.40;;;;;;;34.50;26.46;101216.69;4902142;28;98416;-64
2021/08/12 10:33:28;;;;;;;2.85;2.50;;;;;;;35.02;26.07;101209.00;4899733;28;99954;-64
2021/08/12 10:35:55;;;;;;;2.70;2.50;;;;;;;36.41;24.57;101211.84;4884855;28;111267;-69
2021/08/12 10:38:21;;;;;;;3.17;2.40;;;;;;;36.98;24.70;101215.63;4884386;28;97968;-64
2021/08/12 10:40:48;;;;;;;4.43;2.40;;;;;;;37.07;24.27;101213.06;4899686;28;127099;-64
2021/08/12 10:43:18;;;;;;;2.28;2.08;;;;;;;37.29;23.97;101202.16;4883533;28;104406;-64
2021/08/12 10:45:54;;;;;;;2.50;2.30;;;;;;;37.55;24.12;101203.22;4870370;28;97874;-69
2021/08/12 10:48:20;;;;;;;8.82;2.30;;;;;;;37.38;24.09;101202.38;4901284;28;97828;-69
2021/08/12 10:51:11;;;;;;;2.80;2.30;;;;;;;37.84;23.08;101197.72;4902074;28;98867;-69
2021/08/12 10:53:43;;;;;;;2.97;2.20;;;;;;;38.57;22.23;101181.44;4900412;28;98363;-64
2021/08/12 10:56:14;;;;;;;2.85;2.30;;;;;;;38.09;23.40;101187.91;4885404;28;97933;-64
2021/08/12 10:58:43;;;;;;;3.15;2.20;;;;;;;38.34;22.91;101181.66;4902346;28;97957;-68
2021/08/12 11:01:11;;;;;;;3.17;2.13;;;;;;;38.94;21.71;101179.22;4884642;28;99932;-64
2021/08/12 11:03:46;;;;;;;2.30;2.05;;;;;;;38.70;22.29;101175.84;4899521;28;98639;-69
2021/08/12 11:06:19;;;;;;;2.17;1.80;;;;;;;38.19;22.33;101181.22;4901696;28;98472;-64
2021/08/12 11:08:52;;;;;;;3.35;2.17;;;;;;;38.18;22.45;101180.44;4900814;28;98283;-64
2021/08/12 11:11:21;;;;;;;2.53;2.10;;;;;;;38.44;22.11;101167.31;4901717;28;97849;-69
2021/08/12 11:13:51;;;;;;;2.15;1.95;;;;;;;38.59;21.41;101172.53;4901487;28;98142;-68
2021/08/12 11:16:18;;;;;;;2.00;1.90;;;;;;;38.68;21.60;101176.31;4883571;28;120368;-64
2021/08/12 11:18:53;;;;;;;2.00;1.80;;;;;;;39.16;20.84;101176.56;4883269;28;114506;-69
2021/08/12 11:21:31;;;;;;;2.08;1.83;;;;;;;39.23;21.31;101173.56;4902050;28;98366;-63
2021/08/12 11:24:02;;;;;;;2.10;1.90;;;;;;;38.89;21.60;101172.13;4901739;28;98675;-69
2021/08/12 11:26:48;;;;;;;2.30;2.08;;;;;;;38.57;22.28;101167.38;4898627;28;112414;-64